sensor_id;sensor_type;location;lat;lon;timestamp;pressure;altitude;pressure_sealevel;temperature;humidity
60061;BME280;45933;51.336;12.612;2023-03-03T00:00:07;100522.13;;;3.71;56.38
60061;BME280;45933;51.336;12.612;2023-03-03T00:02:32;100523.00;;;3.71;55.94
60061;BME280;45933;51.336;12.612;2023-03-03T00:04:58;100523.81;;;3.70;56.26
60061;BME280;45933;51.336;12.612;2023-03-03T00:07:23;100519.44;;;3.67;56.84
60061;BME280;45933;51.336;12.612;2023-03-03T00:09:49;100522.00;;;3.67;56.23
60061;BME280;45933;51.336;12.612;2023-03-03T00:12:23;100518.66;;;3.70;55.90
60061;BME280;45933;51.336;12.612;2023-03-03T00:14:49;100521.94;;;3.64;56.43
60061;BME280;45933;51.336;12.612;2023-03-03T00:17:41;100529.16;;;3.76;55.13
60061;BME280;45933;51.336;12.612;2023-03-03T00:20:30;100518.81;;;3.75;55.80
60061;BME280;45933;51.336;12.612;2023-03-03T00:23:08;100524.63;;;3.69;56.20
60061;BME280;45933;51.336;12.612;2023-03-03T00:25:39;100521.13;;;3.67;57.40
60061;BME280;45933;51.336;12.612;2023-03-03T00:28:21;100518.69;;;3.72;55.93
60061;BME280;45933;51.336;12.612;2023-03-03T00:30:47;100514.25;;;3.66;56.56
60061;BME280;45933;51.336;12.612;2023-03-03T00:33:31;100516.88;;;3.69;55.98
60061;BME280;45933;51.336;12.612;2023-03-03T00:36:21;100519.69;;;3.75;55.26
60061;BME280;45933;51.336;12.612;2023-03-03T00:38:52;100515.94;;;3.65;56.40
60061;BME280;45933;51.336;12.612;2023-03-03T00:41:26;100505.66;;;3.67;56.22
60061;BME280;45933;51.336;12.612;2023-03-03T00:43:53;100504.63;;;3.60;56.46
60061;BME280;45933;51.336;12.612;2023-03-03T00:46:21;100520.09;;;3.60;57.12
60061;BME280;45933;51.336;12.612;2023-03-03T00:48:48;100519.16;;;3.58;57.10
60061;BME280;45933;51.336;12.612;2023-03-03T00:53:49;100527.69;;;3.56;57.14
60061;BME280;45933;51.336;12.612;2023-03-03T00:56:15;100519.97;;;3.56;56.58
60061;BME280;45933;51.336;12.612;2023-03-03T00:58:40;100523.38;;;3.55;56.95
60061;BME280;45933;51.336;12.612;2023-03-03T01:01:06;100531.13;;;3.56;56.53
60061;BME280;45933;51.336;12.612;2023-03-03T01:03:31;100521.66;;;3.55;56.34
60061;BME280;45933;51.336;12.612;2023-03-03T01:05:57;100525.06;;;3.54;56.98
60061;BME280;45933;51.336;12.612;2023-03-03T01:08:22;100533.72;;;3.56;57.10
60061;BME280;45933;51.336;12.612;2023-03-03T01:10:50;100529.44;;;3.57;56.71
60061;BME280;45933;51.336;12.612;2023-03-03T01:13:18;100521.69;;;3.57;57.25
60061;BME280;45933;51.336;12.612;2023-03-03T01:15:44;100521.69;;;3.57;56.63
60061;BME280;45933;51.336;12.612;2023-03-03T01:18:11;100530.28;;;3.56;56.45
60061;BME280;45933;51.336;12.612;2023-03-03T01:20:37;100522.50;;;3.54;56.90
60061;BME280;45933;51.336;12.612;2023-03-03T01:23:02;100522.53;;;3.56;56.67
60061;BME280;45933;51.336;12.612;2023-03-03T01:25:28;100507.81;;;3.52;56.45
60061;BME280;45933;51.336;12.612;2023-03-03T01:27:54;100510.38;;;3.52;57.13
60061;BME280;45933;51.336;12.612;2023-03-03T01:30:19;100516.34;;;3.49;56.97
60061;BME280;45933;51.336;12.612;2023-03-03T01:32:45;100506.91;;;3.50;57.40
60061;BME280;45933;51.336;12.612;2023-03-03T01:35:10;100506.06;;;3.51;57.11
60061;BME280;45933;51.336;12.612;2023-03-03T01:37:36;100504.34;;;3.51;57.55
60061;BME280;45933;51.336;12.612;2023-03-03T01:40:03;100499.19;;;3.51;57.12
60061;BME280;45933;51.336;12.612;2023-03-03T01:42:29;100498.31;;;3.51;56.52
60061;BME280;45933;51.336;12.612;2023-03-03T01:47:43;100501.78;;;3.51;57.15
60061;BME280;45933;51.336;12.612;2023-03-03T01:50:14;100499.16;;;3.50;56.86
60061;BME280;45933;51.336;12.612;2023-03-03T01:52:43;100503.34;;;3.46;56.57
60061;BME280;45933;51.336;12.612;2023-03-03T01:55:19;100504.28;;;3.48;56.56
60061;BME280;45933;51.336;12.612;2023-03-03T01:57:53;100509.28;;;3.44;56.46
60061;BME280;45933;51.336;12.612;2023-03-03T02:00:22;100501.31;;;3.36;56.61
60061;BME280;45933;51.336;12.612;2023-03-03T02:02:47;100502.19;;;3.36;57.21
60061;BME280;45933;51.336;12.612;2023-03-03T02:05:13;100505.59;;;3.35;57.23
60061;BME280;45933;51.336;12.612;2023-03-03T02:07:40;100500.41;;;3.34;57.25
60061;BME280;45933;51.336;12.612;2023-03-03T02:10:10;100501.31;;;3.36;57.12
60061;BME280;45933;51.336;12.612;2023-03-03T02:12:42;100505.59;;;3.35;56.77
60061;BME280;45933;51.336;12.612;2023-03-03T02:17:41;100515.84;;;3.32;57.26
60061;BME280;45933;51.336;12.612;2023-03-03T02:20:13;100516.75;;;3.34;56.55
60061;BME280;45933;51.336;12.612;2023-03-03T02:28:30;100520.88;;;3.29;56.79
60061;BME280;45933;51.336;12.612;2023-03-03T02:30:58;100518.13;;;3.23;56.95
60061;BME280;45933;51.336;12.612;2023-03-03T02:33:24;100518.00;;;3.20;57.42
60061;BME280;45933;51.336;12.612;2023-03-03T02:35:50;100517.88;;;3.15;57.28
60061;BME280;45933;51.336;12.612;2023-03-03T02:38:34;100510.13;;;3.15;57.09
60061;BME280;45933;51.336;12.612;2023-03-03T02:41:28;100510.25;;;3.19;55.92
60061;BME280;45933;51.336;12.612;2023-03-03T02:44:04;100521.09;;;3.08;57.51
60061;BME280;45933;51.336;12.612;2023-03-03T02:46:33;100519.03;;;2.98;57.25
60061;BME280;45933;51.336;12.612;2023-03-03T02:48:59;100523.16;;;2.93;57.01
60061;BME280;45933;51.336;12.612;2023-03-03T02:51:25;100512.63;;;2.85;57.98
60061;BME280;45933;51.336;12.612;2023-03-03T02:53:50;100521.94;;;2.82;57.55
60061;BME280;45933;51.336;12.612;2023-03-03T02:56:16;100522.72;;;2.79;57.12
60061;BME280;45933;51.336;12.612;2023-03-03T02:58:41;100518.34;;;2.77;57.50
60061;BME280;45933;51.336;12.612;2023-03-03T03:01:06;100508.78;;;2.73;57.43
60061;BME280;45933;51.336;12.612;2023-03-03T03:03:33;100509.56;;;2.70;57.59
60061;BME280;45933;51.336;12.612;2023-03-03T03:05:58;100504.34;;;2.69;58.15
60061;BME280;45933;51.336;12.612;2023-03-03T03:08:24;100496.53;;;2.66;58.05
60061;BME280;45933;51.336;12.612;2023-03-03T03:10:49;100496.53;;;2.66;58.17
60061;BME280;45933;51.336;12.612;2023-03-03T03:13:15;100484.44;;;2.63;57.81
60061;BME280;45933;51.336;12.612;2023-03-03T03:15:40;100479.25;;;2.61;58.03
60061;BME280;45933;51.336;12.612;2023-03-03T03:18:05;100479.25;;;2.61;57.57
60061;BME280;45933;51.336;12.612;2023-03-03T03:20:35;100484.34;;;2.60;57.63
60061;BME280;45933;51.336;12.612;2023-03-03T03:23:01;100485.88;;;2.55;57.61
60061;BME280;45933;51.336;12.612;2023-03-03T03:25:26;100489.34;;;2.55;57.69
60061;BME280;45933;51.336;12.612;2023-03-03T03:27:52;100502.09;;;2.52;57.75
60061;BME280;45933;51.336;12.612;2023-03-03T03:30:17;100507.16;;;2.49;58.17
60061;BME280;45933;51.336;12.612;2023-03-03T03:32:45;100513.06;;;2.47;57.77
60061;BME280;45933;51.336;12.612;2023-03-03T03:35:10;100517.31;;;2.46;58.19
60061;BME280;45933;51.336;12.612;2023-03-03T03:37:35;100525.91;;;2.47;58.32
60061;BME280;45933;51.336;12.612;2023-03-03T03:40:01;100529.38;;;2.47;58.70
60061;BME280;45933;51.336;12.612;2023-03-03T03:42:26;100533.63;;;2.47;58.25
60061;BME280;45933;51.336;12.612;2023-03-03T03:44:51;100535.38;;;2.48;57.74
60061;BME280;45933;51.336;12.612;2023-03-03T03:47:16;100531.91;;;2.46;58.31
60061;BME280;45933;51.336;12.612;2023-03-03T03:49:42;100513.81;;;2.43;58.00
60061;BME280;45933;51.336;12.612;2023-03-03T03:52:07;100512.91;;;2.42;57.73
60061;BME280;45933;51.336;12.612;2023-03-03T03:54:32;100517.13;;;2.40;58.45
60061;BME280;45933;51.336;12.612;2023-03-03T03:56:58;100513.56;;;2.36;58.21
60061;BME280;45933;51.336;12.612;2023-03-03T03:59:24;100510.19;;;2.38;58.35
60061;BME280;45933;51.336;12.612;2023-03-03T04:01:49;100532.41;;;2.35;58.60
60061;BME280;45933;51.336;12.612;2023-03-03T04:04:15;100527.25;;;2.35;58.61
60061;BME280;45933;51.336;12.612;2023-03-03T04:06:40;100534.97;;;2.35;58.18
60061;BME280;45933;51.336;12.612;2023-03-03T04:09:05;100541.81;;;2.35;59.07
60061;BME280;45933;51.336;12.612;2023-03-03T04:11:31;100536.56;;;2.32;58.36
60061;BME280;45933;51.336;12.612;2023-03-03T04:13:56;100536.63;;;2.33;59.33
60061;BME280;45933;51.336;12.612;2023-03-03T04:16:21;100539.13;;;2.32;58.75
60061;BME280;45933;51.336;12.612;2023-03-03T04:18:47;100533.94;;;2.30;58.37
60061;BME280;45933;51.336;12.612;2023-03-03T04:21:13;100537.47;;;2.32;58.47
60061;BME280;45933;51.336;12.612;2023-03-03T04:23:39;100537.50;;;2.34;59.07
60061;BME280;45933;51.336;12.612;2023-03-03T04:26:05;100546.97;;;2.35;59.03
60061;BME280;45933;51.336;12.612;2023-03-03T04:28:31;100542.69;;;2.35;58.70
60061;BME280;45933;51.336;12.612;2023-03-03T04:30:56;100553.84;;;2.36;58.59
60061;BME280;45933;51.336;12.612;2023-03-03T04:33:21;100548.78;;;2.38;58.61
60061;BME280;45933;51.336;12.612;2023-03-03T04:35:47;100545.44;;;2.40;58.94
60061;BME280;45933;51.336;12.612;2023-03-03T04:38:12;100543.78;;;2.42;58.69
60061;BME280;45933;51.336;12.612;2023-03-03T04:40:42;100553.31;;;2.45;58.16
60061;BME280;45933;51.336;12.612;2023-03-03T04:43:08;100546.41;;;2.44;58.30
60061;BME280;45933;51.336;12.612;2023-03-03T04:45:34;100551.56;;;2.44;58.53
60061;BME280;45933;51.336;12.612;2023-03-03T04:47:59;100552.44;;;2.44;58.99
60061;BME280;45933;51.336;12.612;2023-03-03T04:50:26;100544.72;;;2.44;58.46
60061;BME280;45933;51.336;12.612;2023-03-03T04:52:51;100546.50;;;2.47;59.04
60061;BME280;45933;51.336;12.612;2023-03-03T04:55:17;100538.78;;;2.47;58.51
60061;BME280;45933;51.336;12.612;2023-03-03T04:57:42;100532.78;;;2.46;58.57
60061;BME280;45933;51.336;12.612;2023-03-03T05:00:10;100536.22;;;2.47;58.25
60061;BME280;45933;51.336;12.612;2023-03-03T05:02:40;100541.28;;;2.44;58.88
60061;BME280;45933;51.336;12.612;2023-03-03T05:05:07;100549.03;;;2.45;58.78
60061;BME280;45933;51.336;12.612;2023-03-03T05:07:34;100544.72;;;2.44;58.47
60061;BME280;45933;51.336;12.612;2023-03-03T05:09:59;100550.69;;;2.43;59.15
60061;BME280;45933;51.336;12.612;2023-03-03T05:12:25;100550.69;;;2.43;58.19
60061;BME280;45933;51.336;12.612;2023-03-03T05:14:51;100555.75;;;2.42;58.55
60061;BME280;45933;51.336;12.612;2023-03-03T05:17:16;100548.00;;;2.40;58.97
60061;BME280;45933;51.336;12.612;2023-03-03T05:19:42;100553.09;;;2.39;58.33
60061;BME280;45933;51.336;12.612;2023-03-03T05:22:07;100560.75;;;2.37;58.21
60061;BME280;45933;51.336;12.612;2023-03-03T05:24:32;100555.59;;;2.37;58.79
60061;BME280;45933;51.336;12.612;2023-03-03T05:26:57;100557.31;;;2.36;59.21
60061;BME280;45933;51.336;12.612;2023-03-03T05:29:23;100562.44;;;2.36;59.25
60061;BME280;45933;51.336;12.612;2023-03-03T05:31:48;100563.28;;;2.35;58.76
60061;BME280;45933;51.336;12.612;2023-03-03T05:34:14;100556.44;;;2.36;58.88
60061;BME280;45933;51.336;12.612;2023-03-03T05:36:39;100559.88;;;2.36;58.78
60061;BME280;45933;51.336;12.612;2023-03-03T05:39:05;100555.69;;;2.39;59.22
60061;BME280;45933;51.336;12.612;2023-03-03T05:41:31;100559.06;;;2.38;58.95
60061;BME280;45933;51.336;12.612;2023-03-03T05:43:56;100553.16;;;2.40;58.55
60061;BME280;45933;51.336;12.612;2023-03-03T05:46:21;100547.09;;;2.38;59.16
60061;BME280;45933;51.336;12.612;2023-03-03T05:48:47;100546.28;;;2.41;58.75
60061;BME280;45933;51.336;12.612;2023-03-03T05:51:12;100546.34;;;2.42;58.98
60061;BME280;45933;51.336;12.612;2023-03-03T05:53:37;100538.69;;;2.44;59.42
60061;BME280;45933;51.336;12.612;2023-03-03T05:56:03;100537.03;;;2.46;59.36
60061;BME280;45933;51.336;12.612;2023-03-03T05:58:28;100537.09;;;2.47;58.92
60061;BME280;45933;51.336;12.612;2023-03-03T06:00:54;100550.91;;;2.49;59.04
60061;BME280;45933;51.336;12.612;2023-03-03T06:03:19;100544.91;;;2.50;58.98
60061;BME280;45933;51.336;12.612;2023-03-03T06:05:45;100557.00;;;2.53;59.05
60061;BME280;45933;51.336;12.612;2023-03-03T06:08:10;100564.72;;;2.53;59.02
60061;BME280;45933;51.336;12.612;2023-03-03T06:10:35;100572.41;;;2.51;59.00
60061;BME280;45933;51.336;12.612;2023-03-03T06:13:01;100565.50;;;2.50;59.07
60061;BME280;45933;51.336;12.612;2023-03-03T06:15:26;100575.75;;;2.49;59.43
60061;BME280;45933;51.336;12.612;2023-03-03T06:17:52;100574.88;;;2.48;58.84
60061;BME280;45933;51.336;12.612;2023-03-03T06:20:17;100584.28;;;2.48;59.60
60061;BME280;45933;51.336;12.612;2023-03-03T06:22:43;100585.06;;;2.45;59.12
60061;BME280;45933;51.336;12.612;2023-03-03T06:25:08;100587.63;;;2.45;59.39
60061;BME280;45933;51.336;12.612;2023-03-03T06:27:33;100582.47;;;2.45;59.46
60061;BME280;45933;51.336;12.612;2023-03-03T06:29:59;100581.63;;;2.45;59.02
60061;BME280;45933;51.336;12.612;2023-03-03T06:32:25;100585.00;;;2.44;59.07
60061;BME280;45933;51.336;12.612;2023-03-03T06:34:50;100580.69;;;2.43;58.98
60061;BME280;45933;51.336;12.612;2023-03-03T06:37:15;100578.16;;;2.44;59.61
60061;BME280;45933;51.336;12.612;2023-03-03T06:39:41;100569.56;;;2.44;59.34
60061;BME280;45933;51.336;12.612;2023-03-03T06:42:06;100567.03;;;2.45;59.69
60061;BME280;45933;51.336;12.612;2023-03-03T06:44:34;100567.91;;;2.46;59.59
60061;BME280;45933;51.336;12.612;2023-03-03T06:46:59;100566.25;;;2.48;59.48
60061;BME280;45933;51.336;12.612;2023-03-03T06:49:24;100577.50;;;2.50;59.43
60061;BME280;45933;51.336;12.612;2023-03-03T06:51:50;100584.28;;;2.48;58.71
60061;BME280;45933;51.336;12.612;2023-03-03T06:54:37;100585.97;;;2.47;59.11
60061;BME280;45933;51.336;12.612;2023-03-03T06:57:23;100588.00;;;2.56;58.35
60061;BME280;45933;51.336;12.612;2023-03-03T06:59:52;100595.34;;;2.45;59.57
60061;BME280;45933;51.336;12.612;2023-03-03T07:02:19;100603.94;;;2.46;59.33
60061;BME280;45933;51.336;12.612;2023-03-03T07:04:45;100612.50;;;2.45;59.52
60061;BME280;45933;51.336;12.612;2023-03-03T07:07:17;100619.44;;;2.47;58.94
60061;BME280;45933;51.336;12.612;2023-03-03T07:10:06;100613.69;;;2.54;59.02
60061;BME280;45933;51.336;12.612;2023-03-03T07:12:37;100614.19;;;2.44;59.43
60061;BME280;45933;51.336;12.612;2023-03-03T07:15:34;100616.81;;;2.46;60.01
60061;BME280;45933;51.336;12.612;2023-03-03T07:18:00;100620.81;;;2.38;59.59
60061;BME280;45933;51.336;12.612;2023-03-03T07:20:35;100614.78;;;2.37;59.41
60061;BME280;45933;51.336;12.612;2023-03-03T07:23:12;100625.81;;;2.33;59.29
60061;BME280;45933;51.336;12.612;2023-03-03T07:25:42;100634.19;;;2.27;59.46
60061;BME280;45933;51.336;12.612;2023-03-03T07:28:19;100636.78;;;2.29;59.53
60061;BME280;45933;51.336;12.612;2023-03-03T07:30:46;100634.09;;;2.26;59.70
60061;BME280;45933;51.336;12.612;2023-03-03T07:33:35;100631.88;;;2.35;58.68
60061;BME280;45933;51.336;12.612;2023-03-03T07:36:16;100653.88;;;2.27;59.50
60061;BME280;45933;51.336;12.612;2023-03-03T07:38:52;100649.53;;;2.26;59.10
60061;BME280;45933;51.336;12.612;2023-03-03T07:41:18;100649.47;;;2.24;59.67
60061;BME280;45933;51.336;12.612;2023-03-03T07:44:03;100647.84;;;2.26;58.97
60061;BME280;45933;51.336;12.612;2023-03-03T07:46:35;100651.22;;;2.25;59.62
60061;BME280;45933;51.336;12.612;2023-03-03T07:49:32;100646.97;;;2.26;59.28
60061;BME280;45933;51.336;12.612;2023-03-03T07:52:00;100651.88;;;2.20;60.03
60061;BME280;45933;51.336;12.612;2023-03-03T08:05:34;100654.28;;;2.15;59.83
60061;BME280;45933;51.336;12.612;2023-03-03T08:10:53;100646.72;;;2.20;58.86
60061;BME280;45933;51.336;12.612;2023-03-03T08:16:17;100649.34;;;2.21;59.78
60061;BME280;45933;51.336;12.612;2023-03-03T08:18:50;100652.06;;;2.24;59.33
60061;BME280;45933;51.336;12.612;2023-03-03T08:21:21;100656.31;;;2.24;59.92
60061;BME280;45933;51.336;12.612;2023-03-03T08:23:46;100651.88;;;2.20;59.67
60061;BME280;45933;51.336;12.612;2023-03-03T08:26:19;100652.06;;;2.24;59.80
60061;BME280;45933;51.336;12.612;2023-03-03T08:28:46;100651.88;;;2.20;59.10
60061;BME280;45933;51.336;12.612;2023-03-03T08:31:11;100652.72;;;2.19;59.51
60061;BME280;45933;51.336;12.612;2023-03-03T08:33:38;100647.56;;;2.19;59.83
60061;BME280;45933;51.336;12.612;2023-03-03T08:36:04;100658.78;;;2.21;59.63
60061;BME280;45933;51.336;12.612;2023-03-03T08:38:30;100647.84;;;2.26;60.32
60061;BME280;45933;51.336;12.612;2023-03-03T08:40:55;100656.50;;;2.28;59.17
60061;BME280;45933;51.336;12.612;2023-03-03T08:43:20;100661.81;;;2.33;59.24
60061;BME280;45933;51.336;12.612;2023-03-03T08:45:52;100658.75;;;2.43;59.55
60061;BME280;45933;51.336;12.612;2023-03-03T08:48:19;100660.59;;;2.47;59.57
60061;BME280;45933;51.336;12.612;2023-03-03T08:50:45;100659.16;;;2.54;59.33
60061;BME280;45933;51.336;12.612;2023-03-03T08:53:12;100667.97;;;2.60;59.19
60061;BME280;45933;51.336;12.612;2023-03-03T08:55:38;100675.06;;;2.68;58.47
60061;BME280;45933;51.336;12.612;2023-03-03T08:58:04;100666.69;;;2.73;58.08
60061;BME280;45933;51.336;12.612;2023-03-03T09:00:29;100671.94;;;2.76;58.24
60061;BME280;45933;51.336;12.612;2023-03-03T09:02:54;100667.78;;;2.80;58.94
60061;BME280;45933;51.336;12.612;2023-03-03T09:05:21;100668.84;;;2.85;57.87
60061;BME280;45933;51.336;12.612;2023-03-03T09:07:47;100669.88;;;2.90;58.06
60061;BME280;45933;51.336;12.612;2023-03-03T09:10:18;100681.13;;;2.94;58.23
60061;BME280;45933;51.336;12.612;2023-03-03T09:12:45;100674.44;;;2.99;57.99
60061;BME280;45933;51.336;12.612;2023-03-03T09:15:22;100678.09;;;3.05;57.82
60061;BME280;45933;51.336;12.612;2023-03-03T09:17:48;100676.34;;;3.04;57.76
60061;BME280;45933;51.336;12.612;2023-03-03T09:20:23;100672.34;;;3.12;57.08
60061;BME280;45933;51.336;12.612;2023-03-03T09:22:49;100675.69;;;3.10;56.29
60061;BME280;45933;51.336;12.612;2023-03-03T09:25:34;100678.53;;;3.18;57.30
60061;BME280;45933;51.336;12.612;2023-03-03T09:28:00;100672.44;;;3.15;56.73
60061;BME280;45933;51.336;12.612;2023-03-03T09:30:36;100680.44;;;3.23;57.40
60061;BME280;45933;51.336;12.612;2023-03-03T09:33:18;100678.09;;;3.31;56.78
60061;BME280;45933;51.336;12.612;2023-03-03T09:35:45;100679.81;;;3.30;57.02
60061;BME280;45933;51.336;12.612;2023-03-03T09:38:27;100681.81;;;3.39;56.25
60061;BME280;45933;51.336;12.612;2023-03-03T09:44:05;100685.56;;;3.49;56.07
60061;BME280;45933;51.336;12.612;2023-03-03T09:47:04;100679.59;;;3.50;56.29
60061;BME280;45933;51.336;12.612;2023-03-03T09:49:56;100676.28;;;3.54;56.06
60061;BME280;45933;51.336;12.612;2023-03-03T09:52:38;100674.47;;;3.51;56.98
60061;BME280;45933;51.336;12.612;2023-03-03T09:58:22;100672.97;;;3.58;56.81
60061;BME280;45933;51.336;12.612;2023-03-03T10:04:23;100667.88;;;3.59;56.33
60061;BME280;45933;51.336;12.612;2023-03-03T10:07:08;100664.47;;;3.60;56.73
60061;BME280;45933;51.336;12.612;2023-03-03T10:09:43;100676.72;;;3.67;56.85
60061;BME280;45933;51.336;12.612;2023-03-03T10:16:08;100673.69;;;3.81;55.99
60061;BME280;45933;51.336;12.612;2023-03-03T10:18:35;100674.66;;;3.84;55.75
60061;BME280;45933;51.336;12.612;2023-03-03T10:21:22;100677.38;;;3.89;55.83
60061;BME280;45933;51.336;12.612;2023-03-03T10:26:47;100682.66;;;3.92;56.12
60061;BME280;45933;51.336;12.612;2023-03-03T10:29:21;100680.03;;;3.90;56.37
60061;BME280;45933;51.336;12.612;2023-03-03T10:31:58;100686.00;;;3.89;56.51
60061;BME280;45933;51.336;12.612;2023-03-03T10:34:59;100686.94;;;3.91;56.58
60061;BME280;45933;51.336;12.612;2023-03-03T10:40:32;100676.78;;;3.98;55.53
60061;BME280;45933;51.336;12.612;2023-03-03T10:43:23;100676.75;;;3.96;56.17
60061;BME280;45933;51.336;12.612;2023-03-03T10:45:57;100667.13;;;3.90;56.19
60061;BME280;45933;51.336;12.612;2023-03-03T10:49:19;100676.69;;;3.94;56.07
60061;BME280;45933;51.336;12.612;2023-03-03T10:51:32;100685.41;;;3.98;55.71
60061;BME280;45933;51.336;12.612;2023-03-03T10:59:12;100684.59;;;4.01;55.93
60061;BME280;45933;51.336;12.612;2023-03-03T11:01:54;100679.56;;;4.04;55.08
60061;BME280;45933;51.336;12.612;2023-03-03T11:04:30;100683.97;;;4.08;55.98
60061;BME280;45933;51.336;12.612;2023-03-03T11:07:18;100676.25;;;4.08;55.95
60061;BME280;45933;51.336;12.612;2023-03-03T11:12:40;100676.59;;;4.20;56.10
60061;BME280;45933;51.336;12.612;2023-03-03T11:21:05;100680.16;;;4.24;55.69
60061;BME280;45933;51.336;12.612;2023-03-03T11:26:45;100678.16;;;4.15;55.35
60061;BME280;45933;51.336;12.612;2023-03-03T11:29:41;100682.41;;;4.13;55.78
60061;BME280;45933;51.336;12.612;2023-03-03T11:32:32;100682.94;;;4.01;56.50
60061;BME280;45933;51.336;12.612;2023-03-03T11:35:25;100677.88;;;4.06;55.80
60061;BME280;45933;51.336;12.612;2023-03-03T11:38:18;100671.91;;;4.07;55.73
60061;BME280;45933;51.336;12.612;2023-03-03T11:40:52;100677.81;;;4.03;56.78
60061;BME280;45933;51.336;12.612;2023-03-03T11:43:41;100683.03;;;4.06;56.71
60061;BME280;45933;51.336;12.612;2023-03-03T11:46:15;100670.97;;;4.05;56.15
60061;BME280;45933;51.336;12.612;2023-03-03T11:49:05;100685.75;;;4.10;56.17
60061;BME280;45933;51.336;12.612;2023-03-03T11:51:43;100685.72;;;4.09;55.83
60061;BME280;45933;51.336;12.612;2023-03-03T11:54:25;100684.03;;;4.09;56.04
60061;BME280;45933;51.336;12.612;2023-03-03T11:57:00;100679.69;;;4.08;56.40
60061;BME280;45933;51.336;12.612;2023-03-03T12:02:54;100668.69;;;4.14;56.35
60061;BME280;45933;51.336;12.612;2023-03-03T12:08:39;100660.28;;;4.21;56.38
60061;BME280;45933;51.336;12.612;2023-03-03T12:11:20;100657.69;;;4.21;56.48
60061;BME280;45933;51.336;12.612;2023-03-03T12:13:57;100650.03;;;4.23;56.63
60061;BME280;45933;51.336;12.612;2023-03-03T12:16:42;100653.53;;;4.26;56.91
60061;BME280;45933;51.336;12.612;2023-03-03T12:19:24;100646.75;;;4.28;56.35
60061;BME280;45933;51.336;12.612;2023-03-03T12:24:43;100637.16;;;4.24;56.47
60061;BME280;45933;51.336;12.612;2023-03-03T12:27:34;100637.31;;;4.30;56.22
60061;BME280;45933;51.336;12.612;2023-03-03T12:35:46;100637.50;;;4.36;56.79
60061;BME280;45933;51.336;12.612;2023-03-03T12:41:14;100636.16;;;4.49;56.41
60061;BME280;45933;51.336;12.612;2023-03-03T12:44:02;100632.63;;;4.47;56.27
60061;BME280;45933;51.336;12.612;2023-03-03T12:46:44;100631.84;;;4.50;56.27
60061;BME280;45933;51.336;12.612;2023-03-03T12:49:10;100633.41;;;4.43;57.07
60061;BME280;45933;51.336;12.612;2023-03-03T12:52:00;100630.16;;;4.50;56.66
60061;BME280;45933;51.336;12.612;2023-03-03T13:02:44;100618.88;;;4.48;57.19
60061;BME280;45933;51.336;12.612;2023-03-03T13:05:26;100607.91;;;4.55;56.60
60061;BME280;45933;51.336;12.612;2023-03-03T13:08:12;100615.72;;;4.58;56.73
60061;BME280;45933;51.336;12.612;2023-03-03T13:10:45;100609.84;;;4.64;56.22
60061;BME280;45933;51.336;12.612;2023-03-03T13:16:03;100591.97;;;4.70;56.67
60061;BME280;45933;51.336;12.612;2023-03-03T13:18:47;100606.59;;;4.69;56.73
60061;BME280;45933;51.336;12.612;2023-03-03T13:21:17;100597.84;;;4.64;56.76
60061;BME280;45933;51.336;12.612;2023-03-03T13:23:57;100606.59;;;4.69;56.78
60061;BME280;45933;51.336;12.612;2023-03-03T13:26:28;100601.31;;;4.66;56.97
60061;BME280;45933;51.336;12.612;2023-03-03T13:29:36;100600.59;;;4.72;56.31
60061;BME280;45933;51.336;12.612;2023-03-03T13:32:27;100620.53;;;4.76;56.21
60061;BME280;45933;51.336;12.612;2023-03-03T13:35:06;100604.94;;;4.73;56.14
60061;BME280;45933;51.336;12.612;2023-03-03T13:37:44;100606.75;;;4.76;56.40
60061;BME280;45933;51.336;12.612;2023-03-03T13:40:22;100609.25;;;4.74;56.41
60061;BME280;45933;51.336;12.612;2023-03-03T13:42:52;100597.19;;;4.73;55.89
60061;BME280;45933;51.336;12.612;2023-03-03T13:48:39;100598.13;;;4.75;56.14
60061;BME280;45933;51.336;12.612;2023-03-03T13:51:39;100594.72;;;4.78;56.11
60061;BME280;45933;51.336;12.612;2023-03-03T14:00:14;100579.81;;;4.67;56.75
60061;BME280;45933;51.336;12.612;2023-03-03T14:05:51;100578.94;;;4.67;56.71
60061;BME280;45933;51.336;12.612;2023-03-03T14:11:46;100573.69;;;4.64;57.46
60061;BME280;45933;51.336;12.612;2023-03-03T14:14:45;100565.84;;;4.59;57.37
60061;BME280;45933;51.336;12.612;2023-03-03T14:17:17;100558.84;;;4.55;57.83
60061;BME280;45933;51.336;12.612;2023-03-03T14:19:47;100549.28;;;4.51;58.21
60061;BME280;45933;51.336;12.612;2023-03-03T14:22:17;100552.69;;;4.50;57.96
60061;BME280;45933;51.336;12.612;2023-03-03T14:24:59;100551.81;;;4.50;58.21
60061;BME280;45933;51.336;12.612;2023-03-03T14:27:33;100549.16;;;4.46;58.11
60061;BME280;45933;51.336;12.612;2023-03-03T14:29:58;100550.81;;;4.44;58.06
60061;BME280;45933;51.336;12.612;2023-03-03T14:32:26;100547.38;;;4.44;58.17
60061;BME280;45933;51.336;12.612;2023-03-03T14:35:16;100540.63;;;4.49;57.97
60061;BME280;45933;51.336;12.612;2023-03-03T14:37:44;100542.16;;;4.42;58.33
60061;BME280;45933;51.336;12.612;2023-03-03T14:40:21;100540.47;;;4.43;58.33
60061;BME280;45933;51.336;12.612;2023-03-03T14:42:53;100547.38;;;4.44;58.37
60061;BME280;45933;51.336;12.612;2023-03-03T14:47:45;100536.13;;;4.42;58.63
60061;BME280;45933;51.336;12.612;2023-03-03T14:50:33;100538.97;;;4.53;57.67
60061;BME280;45933;51.336;12.612;2023-03-03T14:55:54;100532.72;;;4.43;58.25
60061;BME280;45933;51.336;12.612;2023-03-03T15:01:16;100531.91;;;4.45;58.18
60061;BME280;45933;51.336;12.612;2023-03-03T15:03:57;100539.38;;;4.35;59.06
60061;BME280;45933;51.336;12.612;2023-03-03T15:06:34;100536.69;;;4.30;58.79
60061;BME280;45933;51.336;12.612;2023-03-03T15:09:24;100536.00;;;4.37;57.97
60061;BME280;45933;51.336;12.612;2023-03-03T15:11:55;100536.78;;;4.33;58.45